McKeansburg, Pennsylvania
Current Conditions -  °F | °C
As of 4:35 AM on Tuesday 21 Oct 2014 (Local Time) from KHZL Reporting Station
Overcast Overcast  
Wind Chill: 50°   Ceiling: 800
Heat Index: 50°   Visibility: 10mi
Dew Point: 46°   Wind: 3mph
Humidity: 87%   Direction: 160°SSE
Pressure: 29.88"   Gusts: NA
Location:  40.7138°N, 75.9395°W
Report Text: KHZL 210835Z AUTO 16003KT 10SM BKN008 BKN043 OVC049 10/08 A2988 RMK AO2
Loading
Personal Weather Stations






























Interactive Weather Map
Tropical Storm Tracking
New forecast layout! Learn more

10-Day Weather Forecast

Advertisements
Track Severe Weather on mobile